sensor_id;sensor_type;location;lat;lon;timestamp;P1;durP1;ratioP1;P2;durP2;ratioP2
66521;SDS011;53349;53.538;8.584;2023-06-10T00:01:06;14.17;;;4.00;;
66521;SDS011;53349;53.538;8.584;2023-06-10T00:03:31;11.55;;;3.75;;
66521;SDS011;53349;53.538;8.584;2023-06-10T00:05:57;9.63;;;3.45;;
66521;SDS011;53349;53.538;8.584;2023-06-10T00:08:23;11.37;;;3.77;;
66521;SDS011;53349;53.538;8.584;2023-06-10T00:10:49;7.60;;;3.22;;
66521;SDS011;53349;53.538;8.584;2023-06-10T00:13:17;9.38;;;3.83;;
66521;SDS011;53349;53.538;8.584;2023-06-10T00:15:42;9.50;;;3.53;;
66521;SDS011;53349;53.538;8.584;2023-06-10T00:18:07;10.57;;;4.13;;
66521;SDS011;53349;53.538;8.584;2023-06-10T00:20:33;7.33;;;3.13;;
66521;SDS011;53349;53.538;8.584;2023-06-10T00:23:01;9.05;;;3.63;;
66521;SDS011;53349;53.538;8.584;2023-06-10T00:25:28;12.80;;;3.42;;
66521;SDS011;53349;53.538;8.584;2023-06-10T00:27:53;12.43;;;3.90;;
66521;SDS011;53349;53.538;8.584;2023-06-10T00:30:19;10.30;;;3.93;;
66521;SDS011;53349;53.538;8.584;2023-06-10T00:32:44;11.87;;;4.10;;
66521;SDS011;53349;53.538;8.584;2023-06-10T00:35:11;11.15;;;3.95;;
66521;SDS011;53349;53.538;8.584;2023-06-10T00:37:37;7.97;;;3.50;;
66521;SDS011;53349;53.538;8.584;2023-06-10T00:40:05;9.90;;;3.70;;
66521;SDS011;53349;53.538;8.584;2023-06-10T00:42:32;11.57;;;3.95;;
66521;SDS011;53349;53.538;8.584;2023-06-10T00:44:58;10.82;;;3.88;;
66521;SDS011;53349;53.538;8.584;2023-06-10T00:47:29;10.63;;;3.90;;
66521;SDS011;53349;53.538;8.584;2023-06-10T00:49:55;10.43;;;4.25;;
66521;SDS011;53349;53.538;8.584;2023-06-10T00:52:22;11.65;;;4.00;;
66521;SDS011;53349;53.538;8.584;2023-06-10T00:54:52;11.60;;;3.90;;
66521;SDS011;53349;53.538;8.584;2023-06-10T00:57:19;9.90;;;3.67;;
66521;SDS011;53349;53.538;8.584;2023-06-10T00:59:47;8.60;;;3.45;;
66521;SDS011;53349;53.538;8.584;2023-06-10T01:02:14;13.10;;;4.00;;
66521;SDS011;53349;53.538;8.584;2023-06-10T01:04:40;9.37;;;3.80;;
66521;SDS011;53349;53.538;8.584;2023-06-10T01:07:10;9.82;;;3.97;;
66521;SDS011;53349;53.538;8.584;2023-06-10T01:09:59;12.63;;;4.45;;
66521;SDS011;53349;53.538;8.584;2023-06-10T01:15:18;9.47;;;3.97;;
66521;SDS011;53349;53.538;8.584;2023-06-10T01:17:55;9.48;;;3.95;;
66521;SDS011;53349;53.538;8.584;2023-06-10T01:20:20;10.02;;;4.05;;
66521;SDS011;53349;53.538;8.584;2023-06-10T01:22:48;9.63;;;4.20;;
66521;SDS011;53349;53.538;8.584;2023-06-10T01:25:14;11.17;;;3.77;;
66521;SDS011;53349;53.538;8.584;2023-06-10T01:27:51;13.85;;;4.00;;
66521;SDS011;53349;53.538;8.584;2023-06-10T01:30:17;9.48;;;4.07;;
66521;SDS011;53349;53.538;8.584;2023-06-10T01:32:48;12.02;;;4.28;;
66521;SDS011;53349;53.538;8.584;2023-06-10T01:35:16;15.70;;;5.22;;
66521;SDS011;53349;53.538;8.584;2023-06-10T01:37:45;10.85;;;4.50;;
66521;SDS011;53349;53.538;8.584;2023-06-10T01:40:12;9.65;;;4.13;;
66521;SDS011;53349;53.538;8.584;2023-06-10T01:42:41;12.18;;;4.95;;
66521;SDS011;53349;53.538;8.584;2023-06-10T01:45:07;14.73;;;4.82;;
66521;SDS011;53349;53.538;8.584;2023-06-10T01:47:34;12.10;;;4.35;;
66521;SDS011;53349;53.538;8.584;2023-06-10T01:49:59;14.15;;;5.35;;
66521;SDS011;53349;53.538;8.584;2023-06-10T01:52:26;12.48;;;4.85;;
66521;SDS011;53349;53.538;8.584;2023-06-10T01:54:53;11.73;;;4.72;;
66521;SDS011;53349;53.538;8.584;2023-06-10T01:57:18;14.90;;;5.47;;
66521;SDS011;53349;53.538;8.584;2023-06-10T01:59:49;13.93;;;5.10;;
66521;SDS011;53349;53.538;8.584;2023-06-10T02:02:15;13.77;;;4.82;;
66521;SDS011;53349;53.538;8.584;2023-06-10T02:04:42;10.63;;;5.00;;
66521;SDS011;53349;53.538;8.584;2023-06-10T02:07:08;12.95;;;5.35;;
66521;SDS011;53349;53.538;8.584;2023-06-10T02:09:34;15.90;;;4.80;;
66521;SDS011;53349;53.538;8.584;2023-06-10T02:12:00;12.30;;;5.25;;
66521;SDS011;53349;53.538;8.584;2023-06-10T02:14:27;13.03;;;5.00;;
66521;SDS011;53349;53.538;8.584;2023-06-10T02:16:52;14.97;;;4.87;;
66521;SDS011;53349;53.538;8.584;2023-06-10T02:19:18;14.05;;;5.22;;
66521;SDS011;53349;53.538;8.584;2023-06-10T02:21:44;10.53;;;5.40;;
66521;SDS011;53349;53.538;8.584;2023-06-10T02:24:11;13.00;;;5.22;;
66521;SDS011;53349;53.538;8.584;2023-06-10T02:26:36;12.98;;;5.65;;
66521;SDS011;53349;53.538;8.584;2023-06-10T02:29:02;13.48;;;5.72;;
66521;SDS011;53349;53.538;8.584;2023-06-10T02:31:28;14.70;;;5.50;;
66521;SDS011;53349;53.538;8.584;2023-06-10T02:33:54;11.70;;;5.25;;
66521;SDS011;53349;53.538;8.584;2023-06-10T02:36:21;12.13;;;5.60;;
66521;SDS011;53349;53.538;8.584;2023-06-10T02:38:46;14.35;;;5.32;;
66521;SDS011;53349;53.538;8.584;2023-06-10T02:41:12;13.60;;;5.32;;
66521;SDS011;53349;53.538;8.584;2023-06-10T02:43:38;14.73;;;5.43;;
66521;SDS011;53349;53.538;8.584;2023-06-10T02:46:03;13.97;;;5.50;;
66521;SDS011;53349;53.538;8.584;2023-06-10T02:48:29;10.85;;;5.50;;
66521;SDS011;53349;53.538;8.584;2023-06-10T02:50:56;13.65;;;5.38;;
66521;SDS011;53349;53.538;8.584;2023-06-10T02:53:21;14.18;;;5.40;;
66521;SDS011;53349;53.538;8.584;2023-06-10T02:55:49;13.02;;;5.43;;
66521;SDS011;53349;53.538;8.584;2023-06-10T02:58:16;13.70;;;5.20;;
66521;SDS011;53349;53.538;8.584;2023-06-10T03:00:43;13.23;;;5.15;;
66521;SDS011;53349;53.538;8.584;2023-06-10T03:03:09;15.15;;;5.65;;
66521;SDS011;53349;53.538;8.584;2023-06-10T03:05:39;11.63;;;5.00;;
66521;SDS011;53349;53.538;8.584;2023-06-10T03:08:04;16.23;;;5.03;;
66521;SDS011;53349;53.538;8.584;2023-06-10T03:10:32;13.18;;;5.03;;
66521;SDS011;53349;53.538;8.584;2023-06-10T03:12:58;13.20;;;5.22;;
66521;SDS011;53349;53.538;8.584;2023-06-10T03:15:23;12.50;;;5.73;;
66521;SDS011;53349;53.538;8.584;2023-06-10T03:17:50;14.25;;;5.35;;
66521;SDS011;53349;53.538;8.584;2023-06-10T03:20:16;15.55;;;5.50;;
66521;SDS011;53349;53.538;8.584;2023-06-10T03:22:41;14.10;;;5.67;;
66521;SDS011;53349;53.538;8.584;2023-06-10T03:25:06;12.00;;;5.13;;
66521;SDS011;53349;53.538;8.584;2023-06-10T03:27:33;10.23;;;4.80;;
66521;SDS011;53349;53.538;8.584;2023-06-10T03:30:00;10.30;;;5.07;;
66521;SDS011;53349;53.538;8.584;2023-06-10T03:32:28;13.52;;;5.30;;
66521;SDS011;53349;53.538;8.584;2023-06-10T03:34:55;11.82;;;5.10;;
66521;SDS011;53349;53.538;8.584;2023-06-10T03:37:20;12.90;;;4.73;;
66521;SDS011;53349;53.538;8.584;2023-06-10T03:39:47;11.75;;;4.53;;
66521;SDS011;53349;53.538;8.584;2023-06-10T03:42:14;14.18;;;5.07;;
66521;SDS011;53349;53.538;8.584;2023-06-10T03:44:42;11.27;;;5.35;;
66521;SDS011;53349;53.538;8.584;2023-06-10T03:47:08;10.57;;;4.60;;
66521;SDS011;53349;53.538;8.584;2023-06-10T03:49:33;16.13;;;5.07;;
66521;SDS011;53349;53.538;8.584;2023-06-10T03:51:59;12.05;;;4.50;;
66521;SDS011;53349;53.538;8.584;2023-06-10T03:54:24;10.67;;;4.50;;
66521;SDS011;53349;53.538;8.584;2023-06-10T03:56:49;11.73;;;4.50;;
66521;SDS011;53349;53.538;8.584;2023-06-10T03:59:19;9.27;;;3.90;;
66521;SDS011;53349;53.538;8.584;2023-06-10T04:01:44;9.73;;;4.73;;
66521;SDS011;53349;53.538;8.584;2023-06-10T04:04:15;10.50;;;4.68;;
66521;SDS011;53349;53.538;8.584;2023-06-10T04:06:41;11.68;;;4.28;;
66521;SDS011;53349;53.538;8.584;2023-06-10T04:09:06;9.73;;;3.80;;
66521;SDS011;53349;53.538;8.584;2023-06-10T04:11:33;10.25;;;4.15;;
66521;SDS011;53349;53.538;8.584;2023-06-10T04:14:04;8.48;;;3.88;;
66521;SDS011;53349;53.538;8.584;2023-06-10T04:16:35;12.93;;;4.60;;
66521;SDS011;53349;53.538;8.584;2023-06-10T04:19:15;10.07;;;3.63;;
66521;SDS011;53349;53.538;8.584;2023-06-10T04:21:41;10.77;;;4.57;;
66521;SDS011;53349;53.538;8.584;2023-06-10T04:24:06;11.00;;;4.57;;
66521;SDS011;53349;53.538;8.584;2023-06-10T04:26:35;10.85;;;3.97;;
66521;SDS011;53349;53.538;8.584;2023-06-10T04:29:02;12.45;;;4.35;;
66521;SDS011;53349;53.538;8.584;2023-06-10T04:31:28;12.07;;;4.20;;
66521;SDS011;53349;53.538;8.584;2023-06-10T04:33:57;10.27;;;4.43;;
66521;SDS011;53349;53.538;8.584;2023-06-10T04:36:22;11.02;;;4.50;;
66521;SDS011;53349;53.538;8.584;2023-06-10T04:38:48;10.73;;;4.43;;
66521;SDS011;53349;53.538;8.584;2023-06-10T04:41:14;9.07;;;4.37;;
66521;SDS011;53349;53.538;8.584;2023-06-10T04:43:42;15.32;;;4.82;;
66521;SDS011;53349;53.538;8.584;2023-06-10T04:46:07;15.68;;;5.05;;
66521;SDS011;53349;53.538;8.584;2023-06-10T04:48:32;12.97;;;4.97;;
66521;SDS011;53349;53.538;8.584;2023-06-10T04:50:58;10.48;;;4.63;;
66521;SDS011;53349;53.538;8.584;2023-06-10T04:53:23;10.10;;;4.27;;
66521;SDS011;53349;53.538;8.584;2023-06-10T04:55:49;13.67;;;4.77;;
66521;SDS011;53349;53.538;8.584;2023-06-10T04:58:17;9.27;;;4.68;;
66521;SDS011;53349;53.538;8.584;2023-06-10T05:00:44;14.37;;;4.63;;
66521;SDS011;53349;53.538;8.584;2023-06-10T05:03:10;10.65;;;4.68;;
66521;SDS011;53349;53.538;8.584;2023-06-10T05:05:40;10.73;;;4.50;;
66521;SDS011;53349;53.538;8.584;2023-06-10T05:08:05;10.40;;;4.75;;
66521;SDS011;53349;53.538;8.584;2023-06-10T05:10:32;15.97;;;5.07;;
66521;SDS011;53349;53.538;8.584;2023-06-10T05:13:00;14.15;;;5.55;;
66521;SDS011;53349;53.538;8.584;2023-06-10T05:15:27;12.55;;;4.60;;
66521;SDS011;53349;53.538;8.584;2023-06-10T05:17:52;14.60;;;5.23;;
66521;SDS011;53349;53.538;8.584;2023-06-10T05:20:18;7.70;;;4.40;;
66521;SDS011;53349;53.538;8.584;2023-06-10T05:22:44;12.32;;;5.03;;
66521;SDS011;53349;53.538;8.584;2023-06-10T05:25:09;13.50;;;4.97;;
66521;SDS011;53349;53.538;8.584;2023-06-10T05:27:35;10.32;;;4.40;;
66521;SDS011;53349;53.538;8.584;2023-06-10T05:30:03;12.40;;;4.50;;
66521;SDS011;53349;53.538;8.584;2023-06-10T05:32:34;9.32;;;4.10;;
66521;SDS011;53349;53.538;8.584;2023-06-10T05:35:01;14.53;;;4.17;;
66521;SDS011;53349;53.538;8.584;2023-06-10T05:37:26;10.68;;;3.90;;
66521;SDS011;53349;53.538;8.584;2023-06-10T05:39:52;11.00;;;4.27;;
66521;SDS011;53349;53.538;8.584;2023-06-10T05:42:17;10.60;;;4.30;;
66521;SDS011;53349;53.538;8.584;2023-06-10T05:44:44;9.73;;;4.43;;
66521;SDS011;53349;53.538;8.584;2023-06-10T05:47:09;9.17;;;4.23;;
66521;SDS011;53349;53.538;8.584;2023-06-10T05:49:36;12.68;;;4.60;;
66521;SDS011;53349;53.538;8.584;2023-06-10T05:52:04;10.07;;;4.32;;
66521;SDS011;53349;53.538;8.584;2023-06-10T05:54:31;11.65;;;4.32;;
66521;SDS011;53349;53.538;8.584;2023-06-10T05:56:59;9.65;;;4.30;;
66521;SDS011;53349;53.538;8.584;2023-06-10T05:59:27;13.60;;;4.20;;
66521;SDS011;53349;53.538;8.584;2023-06-10T06:01:53;10.38;;;4.35;;
66521;SDS011;53349;53.538;8.584;2023-06-10T06:04:18;9.87;;;3.80;;
66521;SDS011;53349;53.538;8.584;2023-06-10T06:06:44;12.95;;;4.40;;
66521;SDS011;53349;53.538;8.584;2023-06-10T06:09:09;9.33;;;3.73;;
66521;SDS011;53349;53.538;8.584;2023-06-10T06:11:35;10.98;;;4.40;;
66521;SDS011;53349;53.538;8.584;2023-06-10T06:14:03;8.60;;;3.80;;
66521;SDS011;53349;53.538;8.584;2023-06-10T06:16:29;12.90;;;4.28;;
66521;SDS011;53349;53.538;8.584;2023-06-10T06:18:54;10.63;;;3.93;;
66521;SDS011;53349;53.538;8.584;2023-06-10T06:21:20;9.10;;;3.87;;
66521;SDS011;53349;53.538;8.584;2023-06-10T06:23:48;11.75;;;5.90;;
66521;SDS011;53349;53.538;8.584;2023-06-10T06:26:14;8.10;;;3.95;;
66521;SDS011;53349;53.538;8.584;2023-06-10T06:28:40;9.27;;;3.70;;
66521;SDS011;53349;53.538;8.584;2023-06-10T06:31:06;8.20;;;3.67;;
66521;SDS011;53349;53.538;8.584;2023-06-10T06:33:33;10.13;;;3.90;;
66521;SDS011;53349;53.538;8.584;2023-06-10T06:35:58;10.23;;;4.23;;
66521;SDS011;53349;53.538;8.584;2023-06-10T06:38:26;10.52;;;4.05;;
66521;SDS011;53349;53.538;8.584;2023-06-10T06:40:51;7.78;;;3.78;;
66521;SDS011;53349;53.538;8.584;2023-06-10T06:43:18;9.73;;;3.60;;
66521;SDS011;53349;53.538;8.584;2023-06-10T06:45:45;11.02;;;3.72;;
66521;SDS011;53349;53.538;8.584;2023-06-10T06:48:12;8.10;;;3.75;;
66521;SDS011;53349;53.538;8.584;2023-06-10T06:50:38;14.13;;;4.30;;
66521;SDS011;53349;53.538;8.584;2023-06-10T06:53:06;10.97;;;3.90;;
66521;SDS011;53349;53.538;8.584;2023-06-10T06:55:33;10.77;;;4.35;;
66521;SDS011;53349;53.538;8.584;2023-06-10T06:57:59;8.70;;;3.50;;
66521;SDS011;53349;53.538;8.584;2023-06-10T07:00:26;7.05;;;3.85;;
66521;SDS011;53349;53.538;8.584;2023-06-10T07:02:51;13.80;;;4.35;;
66521;SDS011;53349;53.538;8.584;2023-06-10T07:05:18;10.10;;;4.10;;
66521;SDS011;53349;53.538;8.584;2023-06-10T07:07:45;10.85;;;4.07;;
66521;SDS011;53349;53.538;8.584;2023-06-10T07:10:10;9.63;;;4.10;;
66521;SDS011;53349;53.538;8.584;2023-06-10T07:12:39;11.77;;;4.40;;
66521;SDS011;53349;53.538;8.584;2023-06-10T07:15:06;11.53;;;4.23;;
66521;SDS011;53349;53.538;8.584;2023-06-10T07:17:35;9.02;;;4.10;;
66521;SDS011;53349;53.538;8.584;2023-06-10T07:20:02;12.68;;;4.07;;
66521;SDS011;53349;53.538;8.584;2023-06-10T07:22:27;6.68;;;3.65;;
66521;SDS011;53349;53.538;8.584;2023-06-10T07:24:54;8.27;;;3.90;;
66521;SDS011;53349;53.538;8.584;2023-06-10T07:27:20;10.82;;;3.67;;
66521;SDS011;53349;53.538;8.584;2023-06-10T07:29:45;10.63;;;3.70;;
66521;SDS011;53349;53.538;8.584;2023-06-10T07:32:11;11.35;;;4.20;;
66521;SDS011;53349;53.538;8.584;2023-06-10T07:34:37;12.07;;;3.97;;
66521;SDS011;53349;53.538;8.584;2023-06-10T07:37:05;8.40;;;3.70;;
66521;SDS011;53349;53.538;8.584;2023-06-10T07:39:31;8.77;;;3.70;;
66521;SDS011;53349;53.538;8.584;2023-06-10T07:41:57;9.20;;;4.20;;
66521;SDS011;53349;53.538;8.584;2023-06-10T07:44:23;10.30;;;3.88;;
66521;SDS011;53349;53.538;8.584;2023-06-10T07:46:49;8.00;;;3.73;;
66521;SDS011;53349;53.538;8.584;2023-06-10T07:49:15;8.90;;;3.80;;
66521;SDS011;53349;53.538;8.584;2023-06-10T07:51:41;12.97;;;4.03;;
66521;SDS011;53349;53.538;8.584;2023-06-10T07:54:06;7.97;;;3.37;;
66521;SDS011;53349;53.538;8.584;2023-06-10T07:56:33;8.35;;;3.67;;
66521;SDS011;53349;53.538;8.584;2023-06-10T07:58:59;10.47;;;3.80;;
66521;SDS011;53349;53.538;8.584;2023-06-10T08:01:25;8.70;;;3.47;;
66521;SDS011;53349;53.538;8.584;2023-06-10T08:03:52;9.48;;;3.90;;
66521;SDS011;53349;53.538;8.584;2023-06-10T08:06:17;8.07;;;3.53;;
66521;SDS011;53349;53.538;8.584;2023-06-10T08:08:42;11.07;;;3.80;;
66521;SDS011;53349;53.538;8.584;2023-06-10T08:11:11;11.13;;;3.78;;
66521;SDS011;53349;53.538;8.584;2023-06-10T08:13:37;8.27;;;3.50;;
66521;SDS011;53349;53.538;8.584;2023-06-10T08:16:03;10.43;;;3.70;;
66521;SDS011;53349;53.538;8.584;2023-06-10T08:18:30;10.07;;;3.47;;
66521;SDS011;53349;53.538;8.584;2023-06-10T08:21:06;7.40;;;3.53;;
66521;SDS011;53349;53.538;8.584;2023-06-10T08:23:32;6.70;;;3.45;;
66521;SDS011;53349;53.538;8.584;2023-06-10T08:25:59;10.40;;;3.80;;
66521;SDS011;53349;53.538;8.584;2023-06-10T08:28:26;7.43;;;3.35;;
66521;SDS011;53349;53.538;8.584;2023-06-10T08:30:53;6.93;;;3.60;;
66521;SDS011;53349;53.538;8.584;2023-06-10T08:33:18;6.43;;;3.40;;
66521;SDS011;53349;53.538;8.584;2023-06-10T08:35:45;8.13;;;3.57;;
66521;SDS011;53349;53.538;8.584;2023-06-10T08:38:14;9.02;;;4.00;;
66521;SDS011;53349;53.538;8.584;2023-06-10T08:40:41;9.15;;;3.60;;
66521;SDS011;53349;53.538;8.584;2023-06-10T08:43:10;7.03;;;3.20;;
66521;SDS011;53349;53.538;8.584;2023-06-10T08:45:54;10.60;;;4.10;;
66521;SDS011;53349;53.538;8.584;2023-06-10T08:48:24;8.07;;;3.50;;
66521;SDS011;53349;53.538;8.584;2023-06-10T08:50:55;7.75;;;3.90;;
66521;SDS011;53349;53.538;8.584;2023-06-10T08:53:22;7.72;;;3.60;;
66521;SDS011;53349;53.538;8.584;2023-06-10T08:55:51;8.27;;;3.93;;
66521;SDS011;53349;53.538;8.584;2023-06-10T08:58:16;9.40;;;4.15;;
66521;SDS011;53349;53.538;8.584;2023-06-10T09:00:44;10.27;;;3.35;;
66521;SDS011;53349;53.538;8.584;2023-06-10T09:03:10;9.05;;;4.30;;
66521;SDS011;53349;53.538;8.584;2023-06-10T09:05:37;8.27;;;3.30;;
66521;SDS011;53349;53.538;8.584;2023-06-10T09:08:07;8.93;;;3.60;;
66521;SDS011;53349;53.538;8.584;2023-06-10T09:10:35;8.38;;;3.38;;
66521;SDS011;53349;53.538;8.584;2023-06-10T09:13:02;10.47;;;3.47;;
66521;SDS011;53349;53.538;8.584;2023-06-10T09:15:28;10.82;;;4.80;;
66521;SDS011;53349;53.538;8.584;2023-06-10T09:17:53;8.97;;;3.57;;
66521;SDS011;53349;53.538;8.584;2023-06-10T09:20:19;7.45;;;3.17;;
66521;SDS011;53349;53.538;8.584;2023-06-10T09:22:46;7.10;;;2.90;;
66521;SDS011;53349;53.538;8.584;2023-06-10T09:25:12;7.28;;;2.97;;
66521;SDS011;53349;53.538;8.584;2023-06-10T09:27:45;6.07;;;2.95;;
66521;SDS011;53349;53.538;8.584;2023-06-10T09:30:24;7.23;;;2.87;;
66521;SDS011;53349;53.538;8.584;2023-06-10T09:32:50;8.23;;;3.20;;
66521;SDS011;53349;53.538;8.584;2023-06-10T09:35:18;6.90;;;2.83;;
66521;SDS011;53349;53.538;8.584;2023-06-10T09:37:43;8.87;;;2.90;;
66521;SDS011;53349;53.538;8.584;2023-06-10T09:40:09;6.88;;;2.80;;
66521;SDS011;53349;53.538;8.584;2023-06-10T09:42:38;7.05;;;3.17;;
66521;SDS011;53349;53.538;8.584;2023-06-10T09:45:04;12.15;;;3.63;;
66521;SDS011;53349;53.538;8.584;2023-06-10T09:47:31;8.77;;;3.47;;
66521;SDS011;53349;53.538;8.584;2023-06-10T09:49:57;9.38;;;3.50;;
66521;SDS011;53349;53.538;8.584;2023-06-10T09:52:24;6.87;;;2.80;;
66521;SDS011;53349;53.538;8.584;2023-06-10T09:55:08;11.80;;;3.40;;
66521;SDS011;53349;53.538;8.584;2023-06-10T09:57:34;7.85;;;2.83;;
66521;SDS011;53349;53.538;8.584;2023-06-10T10:00:19;9.25;;;2.92;;
66521;SDS011;53349;53.538;8.584;2023-06-10T10:02:45;6.57;;;3.35;;
66521;SDS011;53349;53.538;8.584;2023-06-10T10:05:18;8.17;;;3.00;;
66521;SDS011;53349;53.538;8.584;2023-06-10T10:07:45;9.35;;;2.92;;
66521;SDS011;53349;53.538;8.584;2023-06-10T10:10:12;7.78;;;3.03;;
66521;SDS011;53349;53.538;8.584;2023-06-10T10:12:42;7.70;;;3.15;;
66521;SDS011;53349;53.538;8.584;2023-06-10T10:15:11;6.53;;;3.23;;
66521;SDS011;53349;53.538;8.584;2023-06-10T10:17:40;7.53;;;3.20;;
66521;SDS011;53349;53.538;8.584;2023-06-10T10:20:14;8.38;;;2.72;;
66521;SDS011;53349;53.538;8.584;2023-06-10T10:22:43;7.85;;;3.00;;
66521;SDS011;53349;53.538;8.584;2023-06-10T10:25:12;9.30;;;3.20;;
66521;SDS011;53349;53.538;8.584;2023-06-10T10:27:48;5.22;;;2.90;;
66521;SDS011;53349;53.538;8.584;2023-06-10T10:30:37;6.80;;;3.10;;
66521;SDS011;53349;53.538;8.584;2023-06-10T10:36:07;7.78;;;2.90;;
66521;SDS011;53349;53.538;8.584;2023-06-10T10:38:35;8.90;;;3.10;;
66521;SDS011;53349;53.538;8.584;2023-06-10T10:41:04;5.57;;;2.78;;
66521;SDS011;53349;53.538;8.584;2023-06-10T10:43:30;6.63;;;3.00;;
66521;SDS011;53349;53.538;8.584;2023-06-10T10:46:01;13.65;;;3.03;;
66521;SDS011;53349;53.538;8.584;2023-06-10T10:48:35;7.07;;;3.00;;
66521;SDS011;53349;53.538;8.584;2023-06-10T10:51:03;8.03;;;2.87;;
66521;SDS011;53349;53.538;8.584;2023-06-10T10:53:29;6.13;;;2.97;;
66521;SDS011;53349;53.538;8.584;2023-06-10T10:55:59;5.70;;;2.42;;
66521;SDS011;53349;53.538;8.584;2023-06-10T10:58:26;7.07;;;2.40;;
66521;SDS011;53349;53.538;8.584;2023-06-10T11:00:51;7.17;;;2.60;;
66521;SDS011;53349;53.538;8.584;2023-06-10T11:03:19;6.55;;;2.40;;
66521;SDS011;53349;53.538;8.584;2023-06-10T11:05:45;7.57;;;2.87;;
66521;SDS011;53349;53.538;8.584;2023-06-10T11:08:11;7.03;;;2.53;;
66521;SDS011;53349;53.538;8.584;2023-06-10T11:10:40;7.68;;;2.90;;
66521;SDS011;53349;53.538;8.584;2023-06-10T11:13:10;7.45;;;2.60;;
66521;SDS011;53349;53.538;8.584;2023-06-10T11:15:49;6.17;;;2.40;;
66521;SDS011;53349;53.538;8.584;2023-06-10T11:18:26;7.18;;;2.40;;
66521;SDS011;53349;53.538;8.584;2023-06-10T11:23:25;5.97;;;2.28;;
66521;SDS011;53349;53.538;8.584;2023-06-10T11:31:42;6.13;;;2.35;;
66521;SDS011;53349;53.538;8.584;2023-06-10T11:34:29;6.68;;;2.22;;
66521;SDS011;53349;53.538;8.584;2023-06-10T11:36:57;5.60;;;2.10;;
66521;SDS011;53349;53.538;8.584;2023-06-10T11:39:24;6.82;;;2.35;;
66521;SDS011;53349;53.538;8.584;2023-06-10T11:41:52;10.27;;;3.30;;
66521;SDS011;53349;53.538;8.584;2023-06-10T11:44:18;8.35;;;3.00;;
66521;SDS011;53349;53.538;8.584;2023-06-10T11:46:44;5.18;;;2.30;;
66521;SDS011;53349;53.538;8.584;2023-06-10T11:49:10;5.05;;;2.22;;
66521;SDS011;53349;53.538;8.584;2023-06-10T11:51:41;6.77;;;2.40;;
66521;SDS011;53349;53.538;8.584;2023-06-10T11:54:09;6.03;;;2.40;;
66521;SDS011;53349;53.538;8.584;2023-06-10T11:56:35;7.10;;;1.98;;
66521;SDS011;53349;53.538;8.584;2023-06-10T11:59:04;6.30;;;2.08;;
66521;SDS011;53349;53.538;8.584;2023-06-10T12:01:44;5.97;;;2.00;;
66521;SDS011;53349;53.538;8.584;2023-06-10T12:04:11;7.27;;;2.30;;
66521;SDS011;53349;53.538;8.584;2023-06-10T12:06:38;6.03;;;2.40;;
66521;SDS011;53349;53.538;8.584;2023-06-10T12:09:04;7.07;;;2.20;;
66521;SDS011;53349;53.538;8.584;2023-06-10T12:11:33;6.32;;;1.90;;
66521;SDS011;53349;53.538;8.584;2023-06-10T12:14:02;4.38;;;2.03;;
66521;SDS011;53349;53.538;8.584;2023-06-10T12:16:28;6.90;;;2.07;;
66521;SDS011;53349;53.538;8.584;2023-06-10T12:19:00;6.23;;;2.10;;
66521;SDS011;53349;53.538;8.584;2023-06-10T12:21:26;5.77;;;2.17;;
66521;SDS011;53349;53.538;8.584;2023-06-10T12:24:06;8.15;;;2.30;;
66521;SDS011;53349;53.538;8.584;2023-06-10T12:29:24;5.43;;;2.03;;
66521;SDS011;53349;53.538;8.584;2023-06-10T12:34:43;4.43;;;2.20;;
66521;SDS011;53349;53.538;8.584;2023-06-10T12:37:12;4.77;;;2.03;;
66521;SDS011;53349;53.538;8.584;2023-06-10T12:39:38;4.75;;;2.00;;
66521;SDS011;53349;53.538;8.584;2023-06-10T12:42:08;6.15;;;2.28;;
66521;SDS011;53349;53.538;8.584;2023-06-10T12:44:34;6.15;;;2.08;;
66521;SDS011;53349;53.538;8.584;2023-06-10T12:47:09;7.65;;;2.20;;
66521;SDS011;53349;53.538;8.584;2023-06-10T12:49:36;6.50;;;2.30;;
66521;SDS011;53349;53.538;8.584;2023-06-10T12:52:03;6.53;;;2.30;;
66521;SDS011;53349;53.538;8.584;2023-06-10T12:54:32;6.38;;;1.95;;
66521;SDS011;53349;53.538;8.584;2023-06-10T12:57:00;5.55;;;2.10;;
66521;SDS011;53349;53.538;8.584;2023-06-10T12:59:27;6.28;;;2.50;;
66521;SDS011;53349;53.538;8.584;2023-06-10T13:01:55;6.67;;;2.70;;
66521;SDS011;53349;53.538;8.584;2023-06-10T13:04:21;7.13;;;2.40;;
66521;SDS011;53349;53.538;8.584;2023-06-10T13:06:48;6.43;;;2.23;;
66521;SDS011;53349;53.538;8.584;2023-06-10T13:09:13;5.80;;;2.22;;
66521;SDS011;53349;53.538;8.584;2023-06-10T13:11:40;7.57;;;2.28;;
66521;SDS011;53349;53.538;8.584;2023-06-10T13:14:06;6.10;;;2.37;;
66521;SDS011;53349;53.538;8.584;2023-06-10T13:16:36;4.82;;;2.03;;
66521;SDS011;53349;53.538;8.584;2023-06-10T13:19:01;5.20;;;2.37;;
66521;SDS011;53349;53.538;8.584;2023-06-10T13:21:28;7.97;;;2.90;;
66521;SDS011;53349;53.538;8.584;2023-06-10T13:23:54;7.07;;;2.88;;
66521;SDS011;53349;53.538;8.584;2023-06-10T13:26:20;8.53;;;2.47;;
66521;SDS011;53349;53.538;8.584;2023-06-10T13:28:45;6.07;;;2.20;;
66521;SDS011;53349;53.538;8.584;2023-06-10T13:31:12;6.10;;;2.35;;
66521;SDS011;53349;53.538;8.584;2023-06-10T13:33:42;8.00;;;2.30;;
66521;SDS011;53349;53.538;8.584;2023-06-10T13:36:09;6.85;;;2.30;;
66521;SDS011;53349;53.538;8.584;2023-06-10T13:38:36;5.40;;;2.40;;
66521;SDS011;53349;53.538;8.584;2023-06-10T13:41:01;7.23;;;2.80;;
66521;SDS011;53349;53.538;8.584;2023-06-10T13:43:27;6.35;;;2.38;;
66521;SDS011;53349;53.538;8.584;2023-06-10T13:45:52;8.83;;;3.27;;
66521;SDS011;53349;53.538;8.584;2023-06-10T13:48:19;6.88;;;2.47;;
66521;SDS011;53349;53.538;8.584;2023-06-10T13:50:47;7.83;;;3.60;;
66521;SDS011;53349;53.538;8.584;2023-06-10T13:53:13;7.15;;;3.20;;
66521;SDS011;53349;53.538;8.584;2023-06-10T13:55:41;7.10;;;3.00;;
66521;SDS011;53349;53.538;8.584;2023-06-10T13:58:06;10.85;;;4.53;;
66521;SDS011;53349;53.538;8.584;2023-06-10T14:00:34;8.55;;;3.83;;
66521;SDS011;53349;53.538;8.584;2023-06-10T14:03:00;12.10;;;5.33;;
66521;SDS011;53349;53.538;8.584;2023-06-10T14:05:26;11.65;;;5.07;;
66521;SDS011;53349;53.538;8.584;2023-06-10T14:07:51;6.60;;;3.00;;
66521;SDS011;53349;53.538;8.584;2023-06-10T14:10:18;6.35;;;3.53;;
66521;SDS011;53349;53.538;8.584;2023-06-10T14:12:44;7.28;;;3.30;;
66521;SDS011;53349;53.538;8.584;2023-06-10T14:15:10;9.30;;;4.00;;
66521;SDS011;53349;53.538;8.584;2023-06-10T14:17:35;8.75;;;4.25;;
66521;SDS011;53349;53.538;8.584;2023-06-10T14:20:01;7.50;;;3.60;;
66521;SDS011;53349;53.538;8.584;2023-06-10T14:22:26;7.67;;;3.70;;
66521;SDS011;53349;53.538;8.584;2023-06-10T14:24:51;9.80;;;4.50;;
66521;SDS011;53349;53.538;8.584;2023-06-10T14:27:17;9.77;;;4.93;;
66521;SDS011;53349;53.538;8.584;2023-06-10T14:29:44;8.55;;;4.38;;
66521;SDS011;53349;53.538;8.584;2023-06-10T14:32:10;11.85;;;6.53;;
66521;SDS011;53349;53.538;8.584;2023-06-10T14:34:38;5.70;;;3.20;;
66521;SDS011;53349;53.538;8.584;2023-06-10T14:37:06;7.70;;;3.50;;
66521;SDS011;53349;53.538;8.584;2023-06-10T14:39:33;8.15;;;3.55;;
66521;SDS011;53349;53.538;8.584;2023-06-10T14:41:59;8.85;;;4.70;;
66521;SDS011;53349;53.538;8.584;2023-06-10T14:44:24;8.33;;;3.90;;
66521;SDS011;53349;53.538;8.584;2023-06-10T14:46:51;9.25;;;4.35;;
66521;SDS011;53349;53.538;8.584;2023-06-10T14:49:17;10.67;;;4.40;;
66521;SDS011;53349;53.538;8.584;2023-06-10T14:51:44;6.95;;;3.50;;
66521;SDS011;53349;53.538;8.584;2023-06-10T14:54:09;9.27;;;4.10;;
66521;SDS011;53349;53.538;8.584;2023-06-10T14:56:35;8.73;;;4.23;;
66521;SDS011;53349;53.538;8.584;2023-06-10T14:59:03;7.70;;;3.85;;
66521;SDS011;53349;53.538;8.584;2023-06-10T15:01:28;7.88;;;4.00;;